Time;durP1;ratioP1;P1;durP2;ratioP2;P2;SDS_P1;SDS_P2;PMS_P1;PMS_P2;Temp;Humidity;BMP_temperature;BMP_pressure;BME280_temperature;BME280_humidity;BME280_pressure;Samples;Min_cycle;Max_cycle;Signal;HPM_P1;HPM_P2
2022/08/13 00:01:38;;;;;;;5.32;3.63;;;15.40;94.90;;;;;;5087604;28;20111;-61
2022/08/13 00:04:05;;;;;;;8.33;3.60;;;15.50;94.90;;;;;;5091919;28;20028;-60
2022/08/13 00:09:06;;;;;;;6.15;3.65;;;15.50;95.10;;;;;;5092131;28;20020;-61
2022/08/13 00:14:23;;;;;;;6.88;3.47;;;15.30;95.70;;;;;;5071718;28;20032;-64
2022/08/13 00:16:50;;;;;;;7.32;3.70;;;15.30;96.00;;;;;;5084343;28;20406;-60
2022/08/13 00:19:16;;;;;;;5.60;3.88;;;15.30;96.20;;;;;;5087590;28;20052;-60
2022/08/13 00:21:42;;;;;;;6.03;4.00;;;15.20;96.80;;;;;;5088184;28;20032;-60
2022/08/13 00:24:08;;;;;;;9.38;3.60;;;15.10;97.20;;;;;;5081508;28;20036;-62
2022/08/13 00:26:33;;;;;;;6.53;4.10;;;15.20;97.40;;;;;;5078808;28;20033;-61
2022/08/13 00:29:00;;;;;;;11.40;3.97;;;15.20;97.50;;;;;;5071955;28;20525;-61
2022/08/13 00:31:27;;;;;;;9.60;3.42;;;15.20;97.70;;;;;;5081279;28;20024;-60
2022/08/13 00:33:54;;;;;;;5.43;3.88;;;15.10;97.90;;;;;;5089487;28;20028;-61
2022/08/13 00:36:21;;;;;;;5.95;3.95;;;15.20;98.10;;;;;;5086735;28;20032;-64
2022/08/13 00:38:48;;;;;;;5.78;3.90;;;15.20;98.40;;;;;;5085678;28;20039;-60
2022/08/13 00:41:37;;;;;;;7.05;3.53;;;15.10;98.50;;;;;;5087114;28;20028;-60
2022/08/13 00:44:01;;;;;;;8.88;3.80;;;15.20;98.60;;;;;;5070921;28;20392;-60
2022/08/13 00:46:26;;;;;;;5.72;4.10;;;15.10;98.80;;;;;;5075748;28;20019;-59
2022/08/13 00:48:54;;;;;;;6.78;3.63;;;15.10;99.10;;;;;;5091676;28;20504;-60
2022/08/13 00:51:25;;;;;;;6.18;3.88;;;15.10;99.50;;;;;;5087899;28;20024;-60
2022/08/13 00:53:52;;;;;;;5.75;3.88;;;15.10;99.90;;;;;;5091396;28;20028;-60
2022/08/13 00:56:17;;;;;;;5.20;3.72;;;15.00;99.90;;;;;;5085474;28;20036;-60
2022/08/13 00:58:44;;;;;;;5.90;4.00;;;15.00;99.90;;;;;;5078816;28;20073;-62
2022/08/13 01:01:11;;;;;;;4.90;3.70;;;15.10;99.90;;;;;;5079894;28;20032;-60
2022/08/13 01:03:38;;;;;;;4.53;3.75;;;15.10;99.90;;;;;;5089444;28;20052;-60
2022/08/13 01:06:05;;;;;;;4.60;3.70;;;15.10;99.90;;;;;;5084341;28;20055;-61
2022/08/13 01:08:34;;;;;;;7.93;3.70;;;14.90;99.90;;;;;;5069779;28;20037;-60
2022/08/13 01:11:27;;;;;;;5.30;4.13;;;14.80;99.90;;;;;;5077381;28;20051;-60
2022/08/13 01:13:53;;;;;;;6.03;4.30;;;14.80;99.90;;;;;;5081534;28;20040;-61
2022/08/13 01:16:19;;;;;;;6.88;4.20;;;14.80;99.90;;;;;;5079467;28;20450;-60
2022/08/13 01:18:48;;;;;;;5.78;3.80;;;14.80;99.90;;;;;;5080474;28;20913;-60
2022/08/13 01:21:23;;;;;;;5.32;3.78;;;14.80;99.90;;;;;;5086488;28;20036;-60
2022/08/13 01:23:52;;;;;;;7.95;4.45;;;14.70;99.90;;;;;;5090514;28;20030;-60
2022/08/13 01:26:19;;;;;;;8.57;4.15;;;14.70;99.90;;;;;;5087815;28;20441;-61
2022/08/13 01:28:47;;;;;;;7.30;4.10;;;14.60;99.90;;;;;;5081805;28;20101;-60
2022/08/13 01:31:15;;;;;;;5.45;4.38;;;14.40;99.90;;;;;;5086463;28;20101;-61
2022/08/13 01:33:45;;;;;;;4.80;3.92;;;14.40;99.90;;;;;;5090617;28;20032;-60
2022/08/13 01:36:12;;;;;;;5.10;3.70;;;14.40;99.90;;;;;;5088289;28;20040;-60
2022/08/13 01:38:39;;;;;;;7.63;3.58;;;14.50;99.90;;;;;;5084417;28;20072;-60
2022/08/13 01:41:10;;;;;;;5.82;3.75;;;14.70;99.90;;;;;;5069949;28;20036;-61
2022/08/13 01:43:38;;;;;;;5.38;3.90;;;14.70;99.90;;;;;;5085850;28;20494;-59
2022/08/13 01:46:06;;;;;;;6.88;4.00;;;14.60;99.90;;;;;;5089076;28;20055;-60
2022/08/13 01:51:23;;;;;;;6.32;3.90;;;14.50;99.90;;;;;;5076589;28;20105;-61
2022/08/13 01:53:53;;;;;;;5.95;3.72;;;14.50;99.90;;;;;;5079779;28;20561;-60
2022/08/13 01:56:23;;;;;;;4.88;3.83;;;14.50;99.90;;;;;;5085410;28;20044;-60
2022/08/13 01:58:54;;;;;;;4.60;3.58;;;14.50;99.90;;;;;;5084839;28;20050;-59
2022/08/13 02:01:24;;;;;;;5.70;4.22;;;14.40;99.90;;;;;;5088892;28;20044;-60
2022/08/13 02:03:51;;;;;;;5.93;4.15;;;14.40;99.90;;;;;;5084592;28;20031;-60
2022/08/13 02:06:21;;;;;;;6.68;3.65;;;14.20;99.90;;;;;;5080520;28;20066;-60
2022/08/13 02:08:52;;;;;;;8.10;4.30;;;14.10;99.90;;;;;;5068427;28;20752;-61
2022/08/13 02:11:18;;;;;;;;;;;14.00;99.90;;;;;;5083319;28;20478;-60
2022/08/13 02:13:45;;;;;;;6.18;3.92;;;14.00;99.90;;;;;;5087441;28;19915;-64
2022/08/13 02:16:10;;;;;;;6.78;4.20;;;14.00;99.90;;;;;;5089787;28;20040;-59
2022/08/13 02:18:38;;;;;;;5.03;3.88;;;14.00;99.90;;;;;;5088507;28;20055;-59
2022/08/13 02:21:05;;;;;;;9.25;4.38;;;13.90;99.90;;;;;;5084602;28;20133;-61
2022/08/13 02:23:33;;;;;;;7.18;4.45;;;13.80;99.90;;;;;;5072685;28;20624;-61
2022/08/13 02:26:00;;;;;;;5.57;4.20;;;13.80;99.90;;;;;;5076944;28;20406;-60
2022/08/13 02:28:32;;;;;;;6.35;4.15;;;13.80;99.90;;;;;;5069032;28;20036;-63
2022/08/13 02:30:57;;;;;;;8.27;4.50;;;13.80;99.90;;;;;;5079591;28;20482;-61
2022/08/13 02:33:25;;;;;;;5.45;4.20;;;13.70;99.90;;;;;;5088617;28;20106;-61
2022/08/13 02:35:51;;;;;;;5.95;4.43;;;13.70;99.90;;;;;;5081413;28;20044;-60
2022/08/13 02:38:17;;;;;;;5.97;4.47;;;13.70;99.90;;;;;;5088753;28;20027;-59
2022/08/13 02:43:30;;;;;;;6.80;4.13;;;13.60;99.90;;;;;;5087921;28;20047;-64
2022/08/13 02:45:56;;;;;;;4.88;4.00;;;13.60;99.90;;;;;;5072265;28;20032;-60
2022/08/13 02:48:24;;;;;;;5.30;4.10;;;13.60;99.90;;;;;;5075820;28;20493;-60
2022/08/13 02:50:52;;;;;;;5.97;4.20;;;13.60;99.90;;;;;;5082339;28;20059;-60
2022/08/13 02:53:19;;;;;;;6.95;4.40;;;13.60;99.90;;;;;;5088163;28;20036;-60
2022/08/13 02:55:49;;;;;;;12.60;4.20;;;13.70;99.90;;;;;;5082091;28;20124;-60
2022/08/13 02:58:16;;;;;;;6.28;4.38;;;13.70;99.90;;;;;;5069329;28;20470;-59
2022/08/13 03:00:46;;;;;;;5.57;4.35;;;13.60;99.90;;;;;;5079971;28;20070;-60
2022/08/13 03:03:12;;;;;;;5.80;4.47;;;13.40;99.90;;;;;;5087959;28;20031;-59
2022/08/13 03:05:37;;;;;;;8.88;5.00;;;13.30;99.90;;;;;;5081352;28;20771;-59
2022/08/13 03:08:03;;;;;;;6.07;4.20;;;13.30;99.90;;;;;;5093343;28;20028;-62
2022/08/13 03:10:29;;;;;;;9.18;4.70;;;13.30;99.90;;;;;;5092351;28;20492;-63
2022/08/13 03:13:07;;;;;;;4.93;3.92;;;13.40;99.90;;;;;;5092755;28;20016;-60
2022/08/13 03:15:34;;;;;;;5.22;4.25;;;13.50;99.90;;;;;;5087750;28;20055;-60
2022/08/13 03:18:00;;;;;;;7.45;4.10;;;13.50;99.90;;;;;;5074457;28;20047;-59
2022/08/13 03:20:26;;;;;;;6.07;4.40;;;13.40;99.90;;;;;;5086809;28;20434;-61
2022/08/13 03:22:55;;;;;;;8.10;4.35;;;13.40;99.90;;;;;;5089848;28;20029;-60
2022/08/13 03:25:23;;;;;;;6.20;4.45;;;13.40;99.90;;;;;;5093282;28;20040;-59
2022/08/13 03:27:49;;;;;;;5.93;4.47;;;13.20;99.90;;;;;;5090723;28;20035;-59
2022/08/13 03:30:17;;;;;;;5.47;4.25;;;13.10;99.90;;;;;;5084369;28;20028;-59
2022/08/13 03:32:45;;;;;;;6.53;4.70;;;13.00;99.90;;;;;;5087174;28;20035;-60
2022/08/13 03:35:14;;;;;;;6.82;4.22;;;12.90;99.90;;;;;;5084512;28;20019;-59
2022/08/13 03:37:41;;;;;;;6.60;4.50;;;12.90;99.90;;;;;;5090540;28;20484;-60
2022/08/13 03:40:08;;;;;;;9.00;4.30;;;13.00;99.90;;;;;;5087078;28;20032;-59
2022/08/13 03:42:34;;;;;;;5.53;4.30;;;13.00;99.90;;;;;;5081599;28;20036;-64
2022/08/13 03:45:03;;;;;;;11.57;4.72;;;12.90;99.90;;;;;;5089724;28;20039;-59
2022/08/13 03:47:28;;;;;;;6.05;4.18;;;12.90;99.90;;;;;;5092596;28;20377;-60
2022/08/13 03:49:54;;;;;;;7.40;4.55;;;13.00;99.90;;;;;;5084111;28;20020;-60
2022/08/13 03:52:21;;;;;;;7.18;4.40;;;12.90;99.90;;;;;;5074155;28;20050;-60
2022/08/13 03:54:46;;;;;;;7.10;4.75;;;12.90;99.90;;;;;;5084623;28;20028;-60
2022/08/13 03:57:12;;;;;;;6.57;4.50;;;12.70;99.90;;;;;;5079655;28;20040;-61
2022/08/13 03:59:40;;;;;;;6.38;4.50;;;12.60;99.90;;;;;;5076872;28;20103;-62
2022/08/13 04:02:06;;;;;;;10.43;5.40;;;12.60;99.90;;;;;;5090611;28;20081;-60
2022/08/13 04:04:32;;;;;;;13.07;5.28;;;12.60;99.90;;;;;;5080199;28;20083;-63
2022/08/13 04:06:59;;;;;;;6.78;4.80;;;12.60;99.90;;;;;;5086616;28;20045;-61
2022/08/13 04:09:24;;;;;;;9.25;4.85;;;12.60;99.90;;;;;;5081973;28;20148;-59
2022/08/13 04:11:50;;;;;;;7.70;4.80;;;12.70;99.90;;;;;;5088967;28;20049;-60
2022/08/13 04:14:16;;;;;;;8.82;5.20;;;12.70;99.90;;;;;;5084772;28;20026;-60
2022/08/13 04:16:41;;;;;;;7.22;4.55;;;12.70;99.90;;;;;;5083851;28;20127;-60
2022/08/13 04:19:07;;;;;;;7.28;4.75;;;12.70;99.90;;;;;;5086272;28;20048;-59
2022/08/13 04:21:35;;;;;;;8.73;5.40;;;12.60;99.90;;;;;;5086699;28;20036;-63
2022/08/13 04:24:04;;;;;;;8.73;5.07;;;12.50;99.90;;;;;;5075831;28;20028;-59
2022/08/13 04:26:33;;;;;;;10.45;5.78;;;12.50;99.90;;;;;;5082590;28;20032;-59
2022/08/13 04:29:02;;;;;;;7.63;4.97;;;12.60;99.90;;;;;;5091377;28;20820;-60
2022/08/13 04:31:28;;;;;;;7.35;4.90;;;12.60;99.90;;;;;;5091386;28;20024;-60
2022/08/13 04:33:54;;;;;;;7.70;4.88;;;12.50;99.90;;;;;;5087994;28;20091;-61
2022/08/13 04:36:19;;;;;;;8.35;5.00;;;12.50;99.90;;;;;;5084066;28;20389;-60
2022/08/13 04:38:45;;;;;;;8.65;5.25;;;12.40;99.90;;;;;;5106360;28;20051;-59
2022/08/13 04:41:11;;;;;;;6.55;5.00;;;12.40;99.90;;;;;;5088640;28;20520;-60
2022/08/13 04:43:36;;;;;;;12.27;5.25;;;12.50;99.90;;;;;;5091036;28;20032;-62
2022/08/13 04:46:02;;;;;;;7.53;5.38;;;12.60;99.90;;;;;;5088056;28;20047;-59
2022/08/13 04:48:32;;;;;;;7.28;4.60;;;12.60;99.90;;;;;;5089825;28;20032;-60
2022/08/13 04:50:58;;;;;;;9.95;4.70;;;12.70;99.90;;;;;;5083443;28;20165;-59
2022/08/13 04:53:29;;;;;;;8.18;4.72;;;12.70;99.90;;;;;;5084166;28;20481;-60
2022/08/13 04:55:56;;;;;;;8.85;5.32;;;12.50;99.90;;;;;;5096309;28;20042;-60
2022/08/13 04:58:23;;;;;;;8.38;5.30;;;12.40;99.90;;;;;;5092539;28;20402;-60
2022/08/13 05:00:50;;;;;;;7.28;5.05;;;12.50;99.90;;;;;;5090316;28;20096;-60
2022/08/13 05:03:21;;;;;;;6.40;4.85;;;12.60;99.90;;;;;;5089472;28;20103;-60
2022/08/13 05:05:49;;;;;;;7.57;4.80;;;12.70;99.90;;;;;;5087865;28;20111;-60
2022/08/13 05:08:15;;;;;;;9.35;5.40;;;12.80;99.90;;;;;;5089996;28;20024;-60
2022/08/13 05:10:43;;;;;;;7.25;5.22;;;12.90;99.90;;;;;;5091672;28;20030;-59
2022/08/13 05:13:24;;;;;;;10.70;6.85;;;13.00;99.90;;;;;;5074429;28;20043;-60
2022/08/13 05:15:51;;;;;;;9.65;6.55;;;13.10;99.90;;;;;;5077762;28;20387;-59
2022/08/13 05:18:18;;;;;;;7.80;5.65;;;13.30;99.90;;;;;;5085963;28;20052;-60
2022/08/13 05:20:44;;;;;;;7.43;5.22;;;13.30;99.90;;;;;;5087083;28;20064;-62
2022/08/13 05:23:11;;;;;;;10.23;5.25;;;13.40;99.90;;;;;;5081400;28;20395;-59
2022/08/13 05:25:36;;;;;;;7.55;5.30;;;13.50;99.90;;;;;;5084168;28;20049;-62
2022/08/13 05:28:03;;;;;;;9.73;5.30;;;13.60;99.90;;;;;;5090725;28;20075;-60
2022/08/13 05:30:28;;;;;;;13.25;5.93;;;13.70;99.90;;;;;;5085937;28;20091;-59
2022/08/13 05:32:57;;;;;;;8.65;5.00;;;13.80;99.90;;;;;;5074926;28;20111;-59
2022/08/13 05:35:25;;;;;;;8.60;4.90;;;14.00;99.90;;;;;;5084693;28;20133;-60
2022/08/13 05:37:51;;;;;;;8.15;5.57;;;14.20;99.90;;;;;;5083129;28;20482;-58
2022/08/13 05:40:17;;;;;;;7.57;5.35;;;14.40;99.90;;;;;;5086203;28;20040;-60
2022/08/13 05:42:43;;;;;;;7.57;5.22;;;14.50;99.90;;;;;;5089776;28;20560;-59
2022/08/13 05:45:09;;;;;;;7.93;5.50;;;14.60;99.90;;;;;;5096078;22;20462;-63
2022/08/13 05:47:36;;;;;;;9.18;4.80;;;14.70;99.90;;;;;;5062539;28;20157;-60
2022/08/13 05:50:13;;;;;;;8.18;5.20;;;15.00;99.90;;;;;;5061499;28;20021;-58
2022/08/13 05:52:39;;;;;;;8.10;5.65;;;15.20;99.90;;;;;;5062471;28;20029;-62
2022/08/13 05:55:11;;;;;;;8.38;5.05;;;15.30;99.90;;;;;;5063469;28;20082;-60
2022/08/13 05:57:40;;;;;;;6.63;5.20;;;15.10;99.90;;;;;;5063684;28;20028;-59
2022/08/13 06:05:38;;;;;;;8.00;5.63;;;15.00;99.90;;;;;;5062133;28;20513;-60
2022/08/13 06:08:05;;;;;;;22.33;6.40;;;15.30;99.90;;;;;;5067356;28;20032;-60
2022/08/13 06:10:31;;;;;;;14.82;5.72;;;15.50;99.90;;;;;;5069028;28;20051;-60
2022/08/13 06:12:57;;;;;;;11.10;5.95;;;15.80;99.90;;;;;;5066098;28;20485;-59
2022/08/13 06:15:23;;;;;;;12.15;5.90;;;16.10;99.90;;;;;;5065966;28;20041;-60
2022/08/13 06:17:52;;;;;;;9.15;5.70;;;16.30;99.90;;;;;;5063711;28;20033;-59
2022/08/13 06:20:20;;;;;;;9.65;5.28;;;16.50;99.90;;;;;;5066256;28;20040;-61
2022/08/13 06:22:47;;;;;;;11.65;5.95;;;16.70;99.90;;;;;;5064980;28;20107;-59
2022/08/13 06:25:15;;;;;;;7.45;5.28;;;16.90;99.90;;;;;;5066418;28;20532;-61
2022/08/13 06:27:42;;;;;;;10.32;5.60;;;17.20;99.90;;;;;;5067078;28;20445;-62
2022/08/13 06:30:09;;;;;;;8.98;5.30;;;17.50;99.90;;;;;;5065925;28;20165;-60
2022/08/13 06:32:36;;;;;;;12.25;5.55;;;17.70;99.90;;;;;;5066338;28;20115;-60
2022/08/13 06:35:05;;;;;;;7.72;5.65;;;17.90;99.90;;;;;;5066272;28;20107;-60
2022/08/13 06:37:32;;;;;;;12.77;5.55;;;18.10;99.90;;;;;;5064567;28;20033;-60
2022/08/13 06:40:00;;;;;;;7.90;5.15;;;18.20;99.90;;;;;;5058397;28;20029;-60
2022/08/13 06:42:28;;;;;;;8.77;5.50;;;18.30;99.90;;;;;;5061589;28;20029;-60
2022/08/13 06:44:58;;;;;;;6.70;4.97;;;18.40;99.90;;;;;;5060005;28;20037;-60
2022/08/13 06:47:26;;;;;;;9.13;5.13;;;18.50;99.90;;;;;;5065202;28;20044;-61
2022/08/13 06:49:53;;;;;;;11.10;5.07;;;18.70;99.90;;;;;;5064505;28;20543;-61
2022/08/13 06:52:19;;;;;;;9.60;4.90;;;18.80;99.90;;;;;;5067476;28;20549;-59
2022/08/13 06:54:45;;;;;;;8.93;4.65;;;18.90;99.90;;;;;;5065370;28;20032;-62
2022/08/13 06:57:11;;;;;;;6.35;4.30;;;19.10;99.90;;;;;;5065759;28;20131;-60
2022/08/13 06:59:39;;;;;;;9.05;4.72;;;19.20;99.70;;;;;;5066822;28;20041;-60
2022/08/13 07:02:07;;;;;;;8.00;4.53;;;19.20;99.10;;;;;;5063221;28;20173;-59
2022/08/13 07:04:33;;;;;;;5.43;4.38;;;19.20;98.90;;;;;;5067818;28;20024;-62
2022/08/13 07:06:59;;;;;;;5.28;4.50;;;19.40;99.40;;;;;;5067576;28;20031;-60
2022/08/13 07:09:26;;;;;;;6.82;4.40;;;19.70;99.50;;;;;;5064977;28;20047;-61
2022/08/13 07:11:52;;;;;;;5.75;4.70;;;19.90;98.10;;;;;;5062265;28;20032;-61
2022/08/13 07:14:18;;;;;;;9.43;4.97;;;19.90;97.00;;;;;;5067993;28;20368;-60
2022/08/13 07:16:44;;;;;;;6.85;4.40;;;19.70;97.00;;;;;;5058891;28;20497;-64
2022/08/13 07:19:14;;;;;;;6.05;4.55;;;19.80;96.90;;;;;;5062459;28;20028;-61
2022/08/13 07:21:42;;;;;;;5.83;4.43;;;19.90;96.10;;;;;;5063021;28;20406;-61
2022/08/13 07:24:09;;;;;;;9.32;4.35;;;19.80;96.50;;;;;;5064561;28;20283;-62
2022/08/13 07:26:36;;;;;;;12.30;4.30;;;19.90;95.90;;;;;;5062395;28;20044;-60
2022/08/13 07:29:04;;;;;;;6.78;3.97;;;20.10;96.20;;;;;;5050966;28;20487;-62
2022/08/13 07:31:33;;;;;;;7.13;4.68;;;20.40;95.90;;;;;;5060637;28;20029;-60
2022/08/13 07:34:06;;;;;;;6.72;4.30;;;20.60;95.20;;;;;;5063946;28;20035;-60
2022/08/13 07:36:36;;;;;;;10.25;4.65;;;20.60;94.40;;;;;;5061812;28;20103;-63
2022/08/13 07:39:11;;;;;;;5.97;4.50;;;20.50;94.50;;;;;;5047876;28;20041;-61
2022/08/13 07:41:43;;;;;;;5.82;4.40;;;20.20;95.00;;;;;;5048624;28;20111;-61
2022/08/13 07:44:12;;;;;;;8.40;4.38;;;20.10;95.40;;;;;;5052421;28;20488;-60
2022/08/13 07:46:42;;;;;;;6.03;4.72;;;20.40;95.40;;;;;;5062528;28;20113;-62
2022/08/13 07:49:10;;;;;;;11.90;4.50;;;20.70;94.60;;;;;;5055628;28;20122;-62
2022/08/13 07:51:37;;;;;;;39.05;5.90;;;20.70;94.50;;;;;;5067417;28;20047;-62
2022/08/13 07:54:05;;;;;;;6.75;4.60;;;20.80;94.10;;;;;;5070061;28;20031;-61
2022/08/13 07:56:32;;;;;;;6.97;4.38;;;20.80;93.80;;;;;;5068346;28;20059;-60
2022/08/13 07:59:03;;;;;;;5.95;4.35;;;20.80;93.90;;;;;;5069686;28;20036;-61
2022/08/13 08:01:30;;;;;;;9.15;4.30;;;21.10;93.40;;;;;;5061399;28;20439;-60
2022/08/13 08:04:02;;;;;;;5.93;4.55;;;21.10;93.40;;;;;;5059036;28;20036;-62
2022/08/13 08:06:30;;;;;;;5.47;4.20;;;21.30;93.50;;;;;;5060246;28;20403;-61
2022/08/13 08:08:57;;;;;;;7.57;4.40;;;21.60;92.70;;;;;;5068001;28;20500;-61
2022/08/13 08:14:10;;;;;;;5.97;4.57;;;21.90;91.30;;;;;;5070396;28;20023;-61
2022/08/13 08:16:37;;;;;;;6.40;4.65;;;22.00;90.50;;;;;;5070211;28;20089;-61
2022/08/13 08:19:03;;;;;;;7.65;4.57;;;21.80;90.60;;;;;;5065419;28;20044;-61
2022/08/13 08:21:29;;;;;;;6.53;3.72;;;21.80;91.90;;;;;;5065990;28;20025;-60
2022/08/13 08:23:59;;;;;;;9.98;4.18;;;22.00;91.60;;;;;;5058681;28;20115;-61
2022/08/13 08:26:30;;;;;;;16.75;4.45;;;22.20;91.40;;;;;;5070793;28;20039;-62
2022/08/13 08:29:00;;;;;;;8.88;4.82;;;22.30;90.80;;;;;;5067612;28;20032;-61
2022/08/13 08:31:27;;;;;;;8.45;4.40;;;22.30;90.40;;;;;;5070622;28;20042;-60
2022/08/13 08:33:57;;;;;;;7.30;4.20;;;22.10;90.60;;;;;;5062723;28;20773;-61
2022/08/13 08:36:23;;;;;;;;;;;22.10;91.60;;;;;;5057417;28;20039;-61
2022/08/13 08:44:23;;;;;;;9.85;4.38;;;22.20;90.20;;;;;;5067189;28;20039;-62
2022/08/13 08:46:53;;;;;;;6.93;4.80;;;22.20;90.30;;;;;;5069024;28;20556;-65
2022/08/13 08:49:21;;;;;;;9.20;4.35;;;22.20;90.50;;;;;;5065067;28;20028;-62
2022/08/13 08:51:49;;;;;;;5.25;4.30;;;22.00;90.40;;;;;;5058800;28;20029;-60
2022/08/13 08:54:16;;;;;;;6.82;4.45;;;22.10;90.90;;;;;;5068035;28;20028;-62
2022/08/13 08:56:42;;;;;;;6.65;4.05;;;22.30;90.30;;;;;;5066246;28;20033;-61
2022/08/13 08:59:10;;;;;;;5.72;4.15;;;22.40;90.50;;;;;;5068011;28;20068;-61
2022/08/13 09:01:35;;;;;;;5.88;4.05;;;22.50;88.90;;;;;;5055981;28;20040;-60
2022/08/13 09:04:05;;;;;;;12.13;4.20;;;22.50;89.40;;;;;;5057905;28;20111;-60
2022/08/13 09:06:31;;;;;;;8.82;4.50;;;22.70;87.80;;;;;;5057272;28;20034;-62
2022/08/13 09:09:00;;;;;;;6.80;3.85;;;22.80;86.60;;;;;;5061884;28;20037;-62
2022/08/13 09:11:29;;;;;;;7.40;3.92;;;23.10;88.80;;;;;;5053015;28;20055;-62
2022/08/13 09:13:55;;;;;;;7.30;4.53;;;23.60;86.10;;;;;;5069567;28;20445;-61
2022/08/13 09:16:21;;;;;;;6.55;3.58;;;24.10;84.70;;;;;;5067799;28;20028;-62
2022/08/13 09:18:48;;;;;;;4.00;3.60;;;24.50;80.10;;;;;;5065516;28;20032;-60
2022/08/13 09:21:15;;;;;;;10.43;3.58;;;24.40;77.30;;;;;;5066600;28;20039;-62
2022/08/13 09:23:46;;;;;;;6.13;3.40;;;24.90;74.60;;;;;;5067952;28;20059;-61
2022/08/13 09:26:15;;;;;;;15.57;3.50;;;25.00;72.20;;;;;;5066772;28;20677;-61
2022/08/13 09:28:42;;;;;;;;;;;24.80;72.50;;;;;;5062567;28;20094;-63
2022/08/13 09:31:10;;;;;;;6.40;3.60;;;24.90;71.90;;;;;;5067013;28;19966;-61
2022/08/13 09:33:40;;;;;;;4.32;3.25;;;25.20;70.40;;;;;;5069046;28;20025;-61
2022/08/13 09:36:10;;;;;;;7.32;3.60;;;25.60;67.30;;;;;;5067632;28;20036;-61
2022/08/13 09:38:37;;;;;;;4.18;3.10;;;25.80;69.20;;;;;;5060134;28;20064;-60
2022/08/13 09:41:27;;;;;;;7.55;3.28;;;26.20;67.30;;;;;;5066685;28;20035;-61
2022/08/13 09:43:56;;;;;;;5.22;4.00;;;26.60;66.30;;;;;;5059265;28;20466;-65
2022/08/13 09:46:23;;;;;;;11.70;3.17;;;26.90;65.30;;;;;;5061979;28;20064;-61
2022/08/13 09:48:55;;;;;;;11.93;3.08;;;27.20;63.70;;;;;;5069849;28;20717;-61
2022/08/13 09:51:22;;;;;;;5.32;3.45;;;27.00;61.50;;;;;;5066533;28;20046;-61
2022/08/13 09:53:47;;;;;;;5.90;2.90;;;27.00;60.70;;;;;;5066360;28;20062;-61
2022/08/13 09:56:17;;;;;;;7.28;2.88;;;27.20;59.80;;;;;;5061126;28;20028;-61
2022/08/13 09:58:50;;;;;;;5.32;3.35;;;27.00;59.50;;;;;;5063139;28;20036;-64
2022/08/13 10:01:19;;;;;;;3.63;2.80;;;27.10;60.40;;;;;;5062660;28;20063;-66
2022/08/13 10:03:48;;;;;;;5.53;2.88;;;27.50;59.20;;;;;;5062907;28;20044;-61
2022/08/13 10:06:18;;;;;;;4.90;2.72;;;27.40;57.50;;;;;;5065580;28;20040;-62
2022/08/13 10:08:46;;;;;;;3.60;2.70;;;27.10;58.30;;;;;;5067609;28;20020;-62
2022/08/13 10:11:12;;;;;;;2.83;2.40;;;27.30;56.70;;;;;;5064494;28;20064;-61
2022/08/13 10:13:38;;;;;;;6.97;2.55;;;27.50;55.40;;;;;;5067597;28;20074;-61
2022/08/13 10:16:03;;;;;;;7.53;3.17;;;27.40;55.00;;;;;;5066068;28;20471;-61
2022/08/13 10:18:31;;;;;;;4.40;2.60;;;27.00;54.10;;;;;;5064842;28;20044;-60
2022/08/13 10:20:57;;;;;;;4.40;2.63;;;27.10;55.00;;;;;;5061547;28;20021;-63
2022/08/13 10:23:23;;;;;;;3.63;2.53;;;27.50;56.00;;;;;;5065114;28;20042;-62
2022/08/13 10:25:52;;;;;;;3.67;2.53;;;28.00;54.80;;;;;;5060316;28;20028;-60
2022/08/13 10:28:31;;;;;;;6.45;3.15;;;27.90;52.80;;;;;;5067124;28;20128;-61
2022/08/13 10:31:03;;;;;;;5.45;3.00;;;27.20;53.70;;;;;;5064234;28;20078;-65
2022/08/13 10:33:29;;;;;;;8.25;2.83;;;27.00;55.30;;;;;;5064913;28;20688;-62
2022/08/13 10:35:55;;;;;;;3.92;3.15;;;27.20;54.30;;;;;;5067214;28;20079;-64
2022/08/13 10:38:26;;;;;;;4.10;2.55;;;27.50;54.50;;;;;;5050674;28;20135;-60
2022/08/13 10:41:10;;;;;;;4.32;2.70;;;27.70;53.70;;;;;;5063231;28;20131;-61
2022/08/13 10:43:40;;;;;;;9.23;2.80;;;27.60;52.90;;;;;;5055096;28;20040;-60
2022/08/13 10:46:11;;;;;;;4.28;2.65;;;27.50;54.30;;;;;;5065161;28;20052;-60
2022/08/13 10:48:38;;;;;;;4.18;2.55;;;27.80;53.60;;;;;;5068634;28;20461;-61
2022/08/13 10:51:04;;;;;;;5.85;2.65;;;28.10;53.40;;;;;;5064645;28;20039;-61
2022/08/13 10:56:17;;;;;;;3.10;2.42;;;28.30;51.60;;;;;;5051269;28;20039;-61
2022/08/13 10:58:43;;;;;;;4.57;2.90;;;28.40;51.60;;;;;;5066389;28;20386;-61
2022/08/13 11:01:10;;;;;;;2.60;2.30;;;28.60;50.40;;;;;;5068241;28;20032;-60
2022/08/13 11:03:37;;;;;;;10.95;2.58;;;28.40;50.70;;;;;;5068410;28;20033;-60
2022/08/13 11:06:06;;;;;;;4.68;2.45;;;28.60;50.40;;;;;;5068124;28;20036;-60
2022/08/13 11:08:44;;;;;;;4.80;2.58;;;28.60;49.80;;;;;;5068101;28;20601;-60
2022/08/13 11:11:10;;;;;;;3.33;2.28;;;28.40;49.40;;;;;;5067366;28;20403;-60
2022/08/13 11:13:37;;;;;;;7.18;2.42;;;28.30;48.90;;;;;;5068693;28;20383;-60
2022/08/13 11:18:49;;;;;;;9.05;2.80;;;28.70;47.50;;;;;;5069136;28;20555;-60
2022/08/13 11:21:15;;;;;;;5.00;2.40;;;28.60;49.20;;;;;;5067631;28;20044;-60
2022/08/13 11:23:40;;;;;;;3.45;2.67;;;29.00;49.40;;;;;;5068771;28;20036;-60
2022/08/13 11:26:06;;;;;;;4.00;2.40;;;28.80;48.20;;;;;;5068113;28;20111;-60
2022/08/13 11:28:31;;;;;;;3.60;2.70;;;28.70;48.10;;;;;;5072632;28;20108;-60
2022/08/13 11:30:57;;;;;;;5.50;2.60;;;28.00;48.40;;;;;;5072787;28;20036;-60
2022/08/13 11:33:24;;;;;;;3.53;2.55;;;27.70;49.60;;;;;;5071983;28;20037;-61
2022/08/13 11:35:52;;;;;;;3.65;2.70;;;27.40;50.30;;;;;;5071547;28;20047;-60
2022/08/13 11:38:21;;;;;;;5.40;2.90;;;27.00;51.40;;;;;;5069236;28;20040;-60
2022/08/13 11:40:57;;;;;;;6.63;2.97;;;26.80;51.80;;;;;;5071509;28;20029;-60
2022/08/13 11:43:27;;;;;;;6.63;2.80;;;26.40;52.30;;;;;;5071730;28;20108;-61
2022/08/13 11:45:53;;;;;;;8.02;2.97;;;26.30;53.60;;;;;;5071984;28;20056;-61
2022/08/13 11:48:19;;;;;;;4.95;2.60;;;26.50;52.90;;;;;;5071742;28;20861;-59
2022/08/13 11:50:46;;;;;;;5.47;2.60;;;26.50;52.00;;;;;;5072348;28;20036;-60
2022/08/13 11:53:12;;;;;;;7.85;3.28;;;26.70;52.50;;;;;;5070717;28;20131;-60
2022/08/13 11:55:38;;;;;;;3.90;2.70;;;27.10;52.30;;;;;;5071471;28;20115;-61
2022/08/13 11:58:06;;;;;;;3.28;2.33;;;27.60;51.00;;;;;;5070791;28;20551;-62
2022/08/13 12:00:37;;;;;;;6.93;2.80;;;28.20;50.30;;;;;;5070782;28;20094;-62
2022/08/13 12:03:04;;;;;;;3.22;2.35;;;28.50;49.10;;;;;;5068183;28;20028;-63
2022/08/13 12:05:30;;;;;;;2.72;2.40;;;28.70;49.10;;;;;;5072149;28;20089;-60
2022/08/13 12:07:56;;;;;;;3.15;2.35;;;28.90;49.00;;;;;;5071744;28;20032;-60
2022/08/13 12:10:22;;;;;;;4.75;2.60;;;29.20;49.60;;;;;;5070308;28;20031;-61
2022/08/13 12:12:48;;;;;;;5.80;2.97;;;29.70;47.80;;;;;;5070411;28;20036;-60
2022/08/13 12:15:14;;;;;;;3.28;2.90;;;29.40;46.30;;;;;;5071064;28;20044;-62
2022/08/13 12:17:44;;;;;;;3.88;2.63;;;29.00;47.20;;;;;;5072108;28;20050;-60
2022/08/13 12:20:19;;;;;;;2.75;2.50;;;28.70;46.30;;;;;;5071181;28;20077;-60
2022/08/13 12:22:45;;;;;;;8.23;2.80;;;28.90;47.90;;;;;;5071721;28;20111;-60
2022/08/13 12:25:11;;;;;;;7.85;2.90;;;29.00;46.80;;;;;;5070085;28;20214;-60
2022/08/13 12:27:37;;;;;;;5.03;2.75;;;29.10;46.70;;;;;;5071280;28;20024;-60
2022/08/13 12:30:06;;;;;;;6.13;2.60;;;29.50;46.30;;;;;;5071002;28;20451;-63
2022/08/13 12:32:32;;;;;;;5.90;2.97;;;29.40;45.80;;;;;;5071627;28;20021;-61
2022/08/13 12:34:58;;;;;;;3.70;2.83;;;29.40;46.30;;;;;;5070101;28;20302;-60
2022/08/13 12:37:24;;;;;;;7.32;2.67;;;29.40;45.00;;;;;;5070432;28;20036;-61
2022/08/13 12:39:54;;;;;;;4.47;2.47;;;29.50;44.40;;;;;;5069512;28;20103;-61
2022/08/13 12:42:20;;;;;;;6.60;2.88;;;29.50;44.70;;;;;;5070745;28;20144;-60
2022/08/13 12:44:46;;;;;;;6.85;2.78;;;29.70;46.00;;;;;;5071001;28;20040;-61
2022/08/13 12:47:12;;;;;;;4.25;2.55;;;29.80;44.20;;;;;;5070596;28;20067;-59
2022/08/13 12:49:37;;;;;;;2.90;2.60;;;30.00;44.10;;;;;;5071230;28;20390;-61
2022/08/13 12:52:03;;;;;;;4.60;2.70;;;30.50;44.30;;;;;;5071120;28;20680;-63
2022/08/13 12:54:29;;;;;;;4.88;2.80;;;30.70;42.50;;;;;;5070061;28;20108;-60
2022/08/13 12:56:55;;;;;;;3.15;2.50;;;30.70;43.90;;;;;;5071038;28;20367;-61
2022/08/13 12:59:20;;;;;;;3.50;2.83;;;30.80;43.20;;;;;;5070296;28;20020;-60
2022/08/13 13:01:52;;;;;;;3.47;2.65;;;30.60;43.80;;;;;;5069622;28;20032;-60
2022/08/13 13:04:22;;;;;;;3.67;2.72;;;30.10;44.80;;;;;;5069988;28;20020;-60
2022/08/13 13:06:49;;;;;;;5.80;2.78;;;30.10;44.50;;;;;;5070862;28;20036;-61
2022/08/13 13:09:15;;;;;;;4.10;2.78;;;29.70;44.50;;;;;;5069040;28;20036;-60
2022/08/13 13:11:40;;;;;;;3.10;2.80;;;29.30;45.60;;;;;;5070652;28;20383;-59
2022/08/13 13:14:07;;;;;;;2.90;2.70;;;29.60;44.80;;;;;;5070381;28;20025;-63
2022/08/13 13:16:34;;;;;;;5.53;3.00;;;30.10;45.40;;;;;;5070218;28;20450;-60
2022/08/13 13:19:01;;;;;;;3.17;2.85;;;30.20;43.00;;;;;;5070728;28;20115;-60